Time;durP1;ratioP1;P1;durP2;ratioP2;P2;SDS_P1;SDS_P2;PMS_P1;PMS_P2;Temp;Humidity;BMP_temperature;BMP_pressure;BME280_temperature;BME280_humidity;BME280_pressure;Samples;Min_cycle;Max_cycle;Signal;HPM_P1;HPM_P2
2023/05/04 00:00:24;;;;;;;7.50;4.53;;;;;;;8.42;55.24;101259.72;10196374;29;20126;-77
2023/05/04 00:05:27;;;;;;;8.27;4.55;;;;;;;8.26;55.24;101260.63;10189956;29;20044;-77
2023/05/04 00:10:31;;;;;;;8.93;4.45;;;;;;;8.30;55.50;101254.13;10191543;29;20036;-78
2023/05/04 00:15:34;;;;;;;7.72;4.65;;;;;;;8.52;55.51;101252.91;10195970;29;20058;-77
2023/05/04 00:20:38;;;;;;;8.63;4.57;;;;;;;8.54;55.35;101248.34;10190482;29;20056;-77
2023/05/04 00:25:42;;;;;;;10.48;4.15;;;;;;;8.35;55.54;101243.16;10192767;29;20118;-77
2023/05/04 00:30:45;;;;;;;7.88;4.88;;;;;;;8.07;56.34;101239.41;10179763;29;20062;-78
2023/05/04 00:35:48;;;;;;;7.35;4.55;;;;;;;8.03;56.58;101236.97;10169368;29;20091;-77
2023/05/04 00:40:52;;;;;;;7.70;5.00;;;;;;;7.99;56.51;101238.13;10150156;29;20040;-76
2023/05/04 00:45:55;;;;;;;10.93;5.15;;;;;;;8.00;56.91;101231.81;10191234;29;20075;-78
2023/05/04 00:50:58;;;;;;;9.63;4.70;;;;;;;7.82;57.15;101228.38;10172946;29;20048;-77
2023/05/04 00:56:03;;;;;;;7.80;5.10;;;;;;;7.86;57.63;101220.06;10174566;29;20072;-77
2023/05/04 01:01:07;;;;;;;10.55;4.35;;;;;;;7.83;57.59;101219.38;10188147;29;20040;-77
2023/05/04 01:06:22;;;;;;;14.45;5.32;;;;;;;7.79;57.57;101209.78;10178709;29;20052;-77
2023/05/04 01:11:33;;;;;;;8.23;4.93;;;;;;;7.64;58.03;101200.81;10184949;29;20131;-77
2023/05/04 01:16:36;;;;;;;10.32;5.10;;;;;;;7.48;58.45;101198.13;10188384;29;20058;-77
2023/05/04 01:21:41;;;;;;;10.05;5.00;;;;;;;7.42;58.64;101211.84;10181693;29;20052;-77
2023/05/04 01:26:46;;;;;;;7.43;4.97;;;;;;;7.33;59.16;101199.00;10193024;29;20044;-77
2023/05/04 01:31:50;;;;;;;12.07;5.88;;;;;;;7.24;59.20;101190.53;10197880;29;20071;-78
2023/05/04 01:36:57;;;;;;;5.60;4.50;;;;;;;7.14;59.58;101202.66;10177558;29;20056;-77
2023/05/04 01:42:00;;;;;;;10.85;4.82;;;;;;;6.99;60.25;101207.00;10205168;29;20491;-77
2023/05/04 01:47:03;;;;;;;9.35;4.97;;;;;;;7.10;60.19;101197.53;10188543;29;20444;-77
2023/05/04 01:52:08;;;;;;;8.80;5.10;;;;;;;7.12;59.78;101201.00;10179468;29;20044;-78
2023/05/04 01:57:11;;;;;;;7.63;4.53;;;;;;;7.03;59.74;101213.06;10184176;29;20677;-78
2023/05/04 02:02:14;;;;;;;7.35;5.22;;;;;;;6.99;59.94;101191.00;10175678;29;20052;-79
2023/05/04 02:07:18;;;;;;;7.53;4.80;;;;;;;6.90;60.12;101202.13;10173791;29;20080;-77
2023/05/04 02:12:21;;;;;;;7.40;4.93;;;;;;;6.90;60.44;101196.78;10185540;29;20048;-77
2023/05/04 02:17:23;;;;;;;10.05;5.82;;;;;;;7.02;60.37;101201.50;10165661;29;20400;-77
2023/05/04 02:22:28;;;;;;;7.32;5.25;;;;;;;7.01;60.17;101199.75;10208772;29;20051;-77
2023/05/04 02:27:30;;;;;;;12.18;5.03;;;;;;;6.81;60.50;101197.25;10191378;29;20090;-77
2023/05/04 02:32:33;;;;;;;10.00;5.65;;;;;;;6.72;61.05;101198.59;10177521;29;20082;-77
2023/05/04 02:37:37;;;;;;;11.00;5.70;;;;;;;6.74;60.95;101198.50;10195579;29;20130;-78
2023/05/04 02:42:40;;;;;;;10.95;5.68;;;;;;;6.76;60.90;101193.97;10194683;29;20047;-78
2023/05/04 02:47:43;;;;;;;8.07;5.85;;;;;;;6.70;61.17;101199.63;10195000;29;20059;-77
2023/05/04 02:52:48;;;;;;;10.43;6.50;;;;;;;6.85;60.82;101185.47;10178070;29;20054;-76
2023/05/04 02:57:50;;;;;;;9.85;6.45;;;;;;;6.76;60.91;101188.63;10197341;29;20507;-76
2023/05/04 03:02:53;;;;;;;8.90;5.78;;;;;;;6.74;60.90;101180.69;10187143;29;20059;-78
2023/05/04 03:07:58;;;;;;;10.13;5.72;;;;;;;6.81;60.82;101181.22;10199055;29;20047;-78
2023/05/04 03:13:04;;;;;;;8.35;6.20;;;;;;;6.78;60.73;101173.38;10186809;29;20054;-78
2023/05/04 03:18:08;;;;;;;10.77;6.07;;;;;;;6.80;61.09;101174.16;10171597;29;20135;-78
2023/05/04 03:23:13;;;;;;;12.80;7.15;;;;;;;6.74;60.73;101170.00;10178673;29;20074;-76
2023/05/04 03:28:16;;;;;;;13.45;6.35;;;;;;;6.85;60.85;101169.44;10184520;29;20419;-77
2023/05/04 03:33:19;;;;;;;11.77;5.93;;;;;;;6.90;60.44;101170.09;10171408;29;20039;-78
2023/05/04 03:38:23;;;;;;;8.68;5.97;;;;;;;6.87;60.42;101156.00;10165995;29;20076;-77
2023/05/04 03:43:27;;;;;;;7.65;5.43;;;;;;;6.85;60.49;101153.41;10175825;29;20048;-77
2023/05/04 03:48:32;;;;;;;8.10;5.50;;;;;;;6.85;60.51;101156.94;10175958;29;20051;-77
2023/05/04 03:53:37;;;;;;;9.25;5.22;;;;;;;6.79;60.33;101153.75;10185701;29;20583;-78
2023/05/04 03:58:40;;;;;;;8.00;5.20;;;;;;;6.68;60.55;101142.75;10186037;29;20040;-78
2023/05/04 04:03:43;;;;;;;12.00;6.10;;;;;;;6.74;60.67;101137.09;10188840;29;20040;-77
2023/05/04 04:08:47;;;;;;;7.88;5.40;;;;;;;6.81;60.78;101138.50;10171702;29;20081;-78
2023/05/04 04:13:50;;;;;;;11.88;5.45;;;;;;;6.79;60.88;101133.22;10193016;29;20058;-78
2023/05/04 04:18:53;;;;;;;11.27;6.28;;;;;;;6.77;60.62;101132.44;10187192;29;20040;-77
2023/05/04 04:23:57;;;;;;;7.97;5.40;;;;;;;6.80;60.66;101129.63;10192173;29;20088;-76
2023/05/04 04:29:00;;;;;;;18.58;5.88;;;;;;;6.78;60.89;101123.50;10191510;29;20082;-79
2023/05/04 04:34:03;;;;;;;8.70;5.47;;;;;;;6.84;60.78;101130.31;10183147;29;20083;-77
2023/05/04 04:39:07;;;;;;;10.18;5.55;;;;;;;6.93;60.94;101124.50;10189340;29;20052;-77
2023/05/04 04:44:10;;;;;;;11.60;5.28;;;;;;;7.04;60.63;101131.94;10189160;29;20040;-77
2023/05/04 04:49:13;;;;;;;14.70;6.93;;;;;;;7.12;60.58;101134.19;10176118;29;20511;-77
2023/05/04 04:54:17;;;;;;;12.88;6.20;;;;;;;7.30;60.30;101135.88;10185186;29;20052;-78
2023/05/04 04:59:23;;;;;;;13.27;6.30;;;;;;;7.42;59.95;101139.66;10179769;29;20068;-78
2023/05/04 05:04:26;;;;;;;7.32;6.03;;;;;;;7.58;59.50;101131.66;10173351;29;20499;-77
2023/05/04 05:09:31;;;;;;;9.73;5.72;;;;;;;7.74;58.95;101137.84;10179234;29;20044;-77
2023/05/04 05:14:34;;;;;;;10.35;5.38;;;;;;;7.93;58.63;101129.63;10171480;29;20059;-76
2023/05/04 05:19:36;;;;;;;11.65;5.80;;;;;;;8.06;58.32;101129.75;10151767;29;20127;-77
2023/05/04 05:24:42;;;;;;;11.48;5.53;;;;;;;8.14;58.03;101123.00;10144451;29;20075;-77
2023/05/04 05:29:45;;;;;;;9.88;5.88;;;;;;;8.30;58.04;101132.81;10151032;29;21430;-77
2023/05/04 05:34:49;;;;;;;12.38;6.22;;;;;;;8.41;57.85;101127.66;10151161;29;20253;-76
2023/05/04 05:39:53;;;;;;;6.00;3.38;;;;;;;8.76;59.98;101130.06;10134705;29;20063;-78
2023/05/04 05:44:56;;;;;;;7.07;5.45;;;;;;;8.95;57.26;101127.97;10146059;29;20052;-76
2023/05/04 05:49:59;;;;;;;9.70;4.93;;;;;;;9.18;57.10;101128.31;10155490;29;20043;-76
2023/05/04 05:55:03;;;;;;;7.93;3.97;;;;;;;9.48;56.42;101131.72;10141989;29;20040;-77
2023/05/04 06:00:07;;;;;;;9.52;4.20;;;;;;;9.84;55.93;101129.41;10145599;29;20055;-78
2023/05/04 06:05:16;;;;;;;14.52;5.05;;;;;;;10.10;54.69;101123.19;10144770;29;20179;-77
2023/05/04 06:10:21;;;;;;;8.38;4.70;;;;;;;10.28;54.29;101122.91;10162487;29;20044;-77
2023/05/04 06:15:23;;;;;;;15.68;4.85;;;;;;;10.37;53.79;101108.88;10155659;29;20058;-76
2023/05/04 06:20:27;;;;;;;13.40;5.45;;;;;;;10.42;53.68;101109.38;10143636;29;20189;-76
2023/05/04 06:25:32;;;;;;;11.68;5.97;;;;;;;10.46;53.29;101104.69;10138316;29;20051;-76
2023/05/04 06:30:35;;;;;;;7.55;5.25;;;;;;;10.59;53.63;101105.56;10150869;29;20106;-77
2023/05/04 06:35:38;;;;;;;7.85;5.28;;;;;;;10.72;52.72;101108.22;10132690;29;20123;-78
2023/05/04 06:40:42;;;;;;;14.68;6.15;;;;;;;10.54;52.74;101100.50;10124030;29;20438;-77
2023/05/04 06:45:45;;;;;;;11.20;6.25;;;;;;;10.62;52.71;101094.59;10147065;29;20515;-76
2023/05/04 06:50:48;;;;;;;10.65;5.82;;;;;;;10.58;52.96;101104.69;10147442;29;20082;-76
2023/05/04 06:55:52;;;;;;;10.70;5.80;;;;;;;10.66;53.01;101088.03;10158550;29;20575;-76
2023/05/04 07:00:55;;;;;;;10.68;5.72;;;;;;;10.50;52.32;101093.59;10153388;29;20210;-77
2023/05/04 07:05:58;;;;;;;9.40;5.40;;;;;;;10.82;51.80;101085.97;10159865;29;20048;-77
2023/05/04 07:11:02;;;;;;;15.88;6.05;;;;;;;11.10;51.45;101084.00;10147516;29;20131;-76
2023/05/04 07:16:07;;;;;;;9.05;5.72;;;;;;;11.58;50.44;101086.81;10147005;29;20044;-76
2023/05/04 07:21:10;;;;;;;13.52;5.53;;;;;;;12.14;49.67;101086.19;10147781;29;20063;-76
2023/05/04 07:26:31;;;;;;;11.07;5.32;;;;;;;12.25;48.04;101085.34;10146712;29;20048;-76
2023/05/04 07:31:33;;;;;;;10.30;4.80;;;;;;;12.81;47.28;101075.56;10143417;29;20152;-78
2023/05/04 07:36:36;;;;;;;10.38;5.50;;;;;;;13.47;46.42;101070.25;10143080;29;20056;-77
2023/05/04 07:41:41;;;;;;;13.77;4.78;;;;;;;13.61;45.41;101068.25;10138408;29;20108;-77
2023/05/04 07:46:46;;;;;;;13.30;5.97;;;;;;;13.57;45.47;101067.63;10140996;29;20095;-77
2023/05/04 07:51:49;;;;;;;12.20;5.28;;;;;;;13.20;45.60;101070.63;10135829;29;20052;-77
2023/05/04 07:56:54;;;;;;;11.60;5.22;;;;;;;13.31;45.92;101060.81;10153925;29;20083;-77
2023/05/04 08:01:56;;;;;;;11.23;5.88;;;;;;;13.75;45.44;101059.84;10155507;29;20050;-78
2023/05/04 08:07:00;;;;;;;9.75;5.07;;;;;;;14.31;44.64;101056.00;10138062;29;20056;-78
2023/05/04 08:12:05;;;;;;;12.40;5.30;;;;;;;14.51;43.68;101067.84;10152453;29;20055;-77
2023/05/04 08:17:08;;;;;;;12.55;5.13;;;;;;;14.48;43.84;101063.56;10151019;29;20179;-78
2023/05/04 08:22:11;;;;;;;15.82;5.63;;;;;;;14.99;43.39;101059.09;10144843;29;20047;-76
2023/05/04 08:27:15;;;;;;;5.30;4.57;;;;;;;14.63;43.90;101052.38;10147675;29;20476;-76
2023/05/04 08:32:18;;;;;;;8.15;4.95;;;;;;;14.74;43.56;101036.91;10147225;29;20059;-76
2023/05/04 08:37:21;;;;;;;7.47;4.90;;;;;;;15.45;43.42;101036.03;10148586;29;20075;-77
2023/05/04 08:42:28;;;;;;;12.80;4.93;;;;;;;16.24;42.29;101026.88;10146741;29;20629;-78
2023/05/04 08:47:31;;;;;;;9.82;4.90;;;;;;;16.82;41.62;101018.56;10156704;29;20183;-73
2023/05/04 08:52:36;;;;;;;9.27;4.72;;;;;;;17.52;39.88;101018.88;10148219;29;20060;-75
2023/05/04 08:57:42;;;;;;;9.13;5.05;;;;;;;17.36;39.70;101013.28;10151320;29;20527;-75
2023/05/04 09:02:46;;;;;;;6.65;4.50;;;;;;;17.24;40.58;101016.22;10137265;29;20056;-75
2023/05/04 09:07:51;;;;;;;8.38;5.72;;;;;;;17.32;39.43;101018.16;10138328;29;20056;-76
2023/05/04 09:12:56;;;;;;;10.80;5.95;;;;;;;17.64;39.17;101014.09;10127894;29;20066;-76
2023/05/04 09:18:02;;;;;;;9.13;6.10;;;;;;;17.75;39.18;101015.72;10131386;29;20063;-76
2023/05/04 09:23:06;;;;;;;13.10;5.40;;;;;;;18.10;38.85;101006.69;10149413;29;20048;-76
2023/05/04 09:28:10;;;;;;;8.43;4.95;;;;;;;17.89;39.65;101002.41;10147475;29;20048;-76
2023/05/04 09:33:15;;;;;;;10.57;5.13;;;;;;;18.07;39.50;100994.28;10146341;29;20064;-76
2023/05/04 09:38:26;;;;;;;10.50;5.68;;;;;;;18.65;38.72;100983.72;10158987;29;20052;-76
2023/05/04 09:43:39;;;;;;;9.93;5.43;;;;;;;18.71;38.73;100974.94;10159224;29;20048;-76
2023/05/04 09:48:51;;;;;;;8.68;5.88;;;;;;;18.89;38.44;100975.69;10149163;29;20163;-76
2023/05/04 09:53:54;;;;;;;9.05;5.80;;;;;;;19.27;38.04;100967.13;10156959;29;20155;-76
2023/05/04 09:58:59;;;;;;;12.23;6.53;;;;;;;19.02;38.34;100961.63;10159624;29;20191;-76
2023/05/04 10:04:02;;;;;;;9.10;5.80;;;;;;;19.12;38.91;100956.91;10154794;29;20075;-76
2023/05/04 10:09:06;;;;;;;8.25;5.70;;;;;;;19.38;38.07;100970.38;10117571;29;20119;-77
2023/05/04 10:14:10;;;;;;;9.25;5.57;;;;;;;19.40;38.11;100957.44;10153825;29;20052;-76
2023/05/04 10:19:40;;;;;;;7.57;5.68;;;;;;;19.65;37.68;100955.63;10141018;29;20096;-76
2023/05/04 10:25:18;;;;;;;8.15;5.57;;;;;;;19.80;37.60;100942.19;10146929;29;20083;-77
2023/05/04 10:30:23;;;;;;;11.38;5.35;;;;;;;19.81;37.01;100945.75;10134655;29;20052;-77
2023/05/04 10:35:26;;;;;;;14.48;6.20;;;;;;;19.88;36.42;100939.44;10137020;29;20048;-76
2023/05/04 10:40:37;;;;;;;9.23;5.35;;;;;;;20.11;37.16;100919.63;10156800;29;20069;-76
2023/05/04 10:45:42;;;;;;;5.65;5.10;;;;;;;20.50;35.43;100916.97;10143709;29;21291;-76
2023/05/04 10:50:49;;;;;;;6.80;4.95;;;;;;;20.64;35.46;100899.00;10148949;29;20048;-77
2023/05/04 10:55:52;;;;;;;8.57;5.22;;;;;;;21.12;34.50;100898.94;10158345;29;21343;-77
2023/05/04 11:00:56;;;;;;;8.57;4.93;;;;;;;21.21;34.27;100887.75;10141819;29;20615;-77
2023/05/04 11:05:59;;;;;;;8.10;4.72;;;;;;;21.63;34.69;100864.50;10153979;29;20044;-77
2023/05/04 11:11:05;;;;;;;10.35;5.20;;;;;;;21.59;34.58;100852.25;10151799;29;20063;-77
2023/05/04 11:16:11;;;;;;;9.10;4.70;;;;;;;21.78;34.50;100842.69;10153821;29;20514;-77
2023/05/04 11:21:23;;;;;;;5.00;4.38;;;;;;;22.18;34.20;100848.72;10154298;29;20514;-77
2023/05/04 11:26:27;;;;;;;;;;;;;;;22.14;33.21;100832.91;10159044;29;20079;-76
2023/05/04 11:31:31;;;;;;;7.97;5.63;;;;;;;22.54;33.28;100835.13;10156977;29;20317;-77
2023/05/04 11:36:37;;;;;;;5.93;5.35;;;;;;;22.81;32.26;100826.38;10124692;29;20052;-77
2023/05/04 11:41:42;;;;;;;7.97;4.50;;;;;;;22.77;32.90;100824.03;10134690;29;20051;-77
2023/05/04 11:46:50;;;;;;;6.70;4.60;;;;;;;23.63;31.54;100814.91;10142371;29;20048;-77
2023/05/04 11:51:53;;;;;;;9.23;4.97;;;;;;;23.93;31.33;100812.81;10151852;29;20419;-77
2023/05/04 11:56:57;;;;;;;5.63;4.70;;;;;;;23.93;31.55;100812.81;10123359;29;20146;-77
2023/05/04 12:02:02;;;;;;;6.65;4.28;;;;;;;23.82;32.01;100811.47;10146018;29;20377;-77
2023/05/04 12:07:07;;;;;;;8.27;4.43;;;;;;;22.73;32.38;100791.72;10137038;29;20056;-77
2023/05/04 12:12:10;;;;;;;8.30;3.92;;;;;;;22.96;32.98;100788.81;10133967;29;20420;-75
2023/05/04 12:17:14;;;;;;;7.25;4.47;;;;;;;22.98;32.21;100779.38;10141587;29;20651;-76
2023/05/04 12:22:17;;;;;;;5.22;4.10;;;;;;;22.96;32.52;100780.59;10149590;29;20152;-76
2023/05/04 12:27:20;;;;;;;6.07;4.72;;;;;;;22.96;32.72;100775.13;10149017;29;20074;-76
2023/05/04 12:32:24;;;;;;;7.07;4.15;;;;;;;23.23;32.34;100759.78;10146168;29;21205;-76
2023/05/04 12:37:27;;;;;;;9.60;4.25;;;;;;;23.57;31.95;100763.59;10151082;29;20059;-76
2023/05/04 12:42:30;;;;;;;6.35;4.55;;;;;;;23.43;31.50;100763.50;10151327;29;20063;-75
2023/05/04 12:47:35;;;;;;;6.90;3.88;;;;;;;22.94;31.39;100756.13;10149681;29;20055;-77
2023/05/04 12:52:39;;;;;;;4.53;3.60;;;;;;;23.05;31.80;100751.16;10155160;29;20605;-77
2023/05/04 12:57:43;;;;;;;7.45;3.45;;;;;;;23.66;31.10;100746.78;10155752;29;20536;-77
2023/05/04 13:02:48;;;;;;;5.03;3.05;;;;;;;23.70;30.52;100729.94;10151503;29;20100;-77
2023/05/04 13:07:52;;;;;;;9.43;3.10;;;;;;;23.48;31.03;100732.78;10148331;29;20051;-77
2023/05/04 13:12:54;;;;;;;5.95;2.97;;;;;;;23.47;29.81;100725.56;10143785;29;20059;-77
2023/05/04 13:17:59;;;;;;;4.82;3.05;;;;;;;23.26;30.66;100706.44;10129613;29;20521;-76
2023/05/04 13:23:02;;;;;;;6.15;3.50;;;;;;;23.31;29.86;100704.84;10138715;29;20080;-76
2023/05/04 13:28:05;;;;;;;4.15;2.55;;;;;;;24.14;29.52;100688.38;10146781;29;20052;-77
2023/05/04 13:33:09;;;;;;;3.33;2.72;;;;;;;23.94;29.37;100687.44;10149283;29;20222;-75
2023/05/04 13:38:29;;;;;;;5.57;3.42;;;;;;;24.16;29.20;100690.91;10147916;29;20044;-77
2023/05/04 13:43:32;;;;;;;6.93;2.33;;;;;;;24.39;29.24;100683.16;10145695;29;20052;-77
2023/05/04 13:48:36;;;;;;;6.15;3.05;;;;;;;24.28;28.55;100678.28;10144743;29;20055;-77
2023/05/04 13:53:39;;;;;;;5.32;3.00;;;;;;;24.95;27.95;100669.03;10156646;29;20065;-77
2023/05/04 13:58:42;;;;;;;3.88;2.63;;;;;;;25.25;27.58;100663.13;10150766;29;20048;-77
2023/05/04 14:03:46;;;;;;;3.90;2.53;;;;;;;24.94;26.93;100666.53;10147503;29;20099;-77
2023/05/04 14:08:49;;;;;;;3.00;2.17;;;;;;;24.66;27.61;100642.03;10157155;29;20076;-77
2023/05/04 14:13:53;;;;;;;3.05;2.40;;;;;;;25.51;26.93;100628.38;10151343;29;21170;-77
2023/05/04 14:18:57;;;;;;;8.10;4.13;;;;;;;25.78;26.49;100616.22;10157882;29;20195;-77
2023/05/04 14:24:00;;;;;;;2.97;2.20;;;;;;;25.43;27.06;100614.88;10136806;29;20057;-76
2023/05/04 14:29:03;;;;;;;4.53;2.45;;;;;;;25.43;27.23;100603.88;10154456;29;20103;-77
2023/05/04 14:34:07;;;;;;;3.80;2.08;;;;;;;25.25;26.90;100605.38;10155086;29;20598;-78
2023/05/04 14:39:10;;;;;;;2.55;2.25;;;;;;;24.70;26.71;100596.59;10153670;29;20161;-77
2023/05/04 14:44:14;;;;;;;4.13;2.08;;;;;;;25.09;26.35;100586.63;10148609;29;20056;-77
2023/05/04 14:49:19;;;;;;;2.03;1.90;;;;;;;24.96;26.80;100580.06;10161309;29;20544;-77
2023/05/04 14:54:38;;;;;;;6.22;2.13;;;;;;;24.80;26.98;100568.72;10148256;29;20079;-77
2023/05/04 14:59:41;;;;;;;5.28;2.78;;;;;;;25.12;26.52;100555.94;10147103;29;20048;-78
2023/05/04 15:04:46;;;;;;;2.97;2.00;;;;;;;24.57;27.21;100556.25;10141002;29;20580;-77
2023/05/04 15:09:49;;;;;;;5.38;2.03;;;;;;;24.75;27.77;100544.63;10144105;29;20139;-78
2023/05/04 15:14:52;;;;;;;2.67;1.88;;;;;;;25.20;26.10;100539.22;10149852;29;20103;-77
2023/05/04 15:19:56;;;;;;;4.65;1.77;;;;;;;23.94;27.08;100537.41;10142725;29;20135;-77
2023/05/04 15:25:00;;;;;;;4.35;2.20;;;;;;;23.65;28.06;100544.94;10147060;29;20131;-77
2023/05/04 15:30:04;;;;;;;2.88;1.90;;;;;;;24.39;28.31;100523.09;10142309;29;20103;-77
2023/05/04 15:35:09;;;;;;;5.22;1.85;;;;;;;24.28;27.25;100528.16;10148709;29;20043;-77
2023/05/04 15:40:12;;;;;;;5.18;2.00;;;;;;;24.06;27.16;100521.19;10150413;29;20233;-77
2023/05/04 15:45:15;;;;;;;2.25;1.77;;;;;;;24.07;28.05;100515.47;10150130;29;20064;-76
2023/05/04 15:50:20;;;;;;;3.55;2.00;;;;;;;24.50;28.08;100512.34;10149430;29;20075;-77
2023/05/04 15:55:23;;;;;;;2.58;1.95;;;;;;;24.57;28.32;100506.81;10152243;29;20191;-77
2023/05/04 16:00:28;;;;;;;2.53;2.05;;;;;;;25.17;27.55;100509.44;10147174;29;20040;-77
2023/05/04 16:05:32;;;;;;;3.08;1.95;;;;;;;24.89;27.56;100498.72;10149563;29;20089;-78
2023/05/04 16:10:35;;;;;;;3.10;1.83;;;;;;;24.53;28.21;100489.94;10147986;29;20134;-77
2023/05/04 16:15:38;;;;;;;3.05;1.95;;;;;;;24.14;28.89;100478.97;10123806;29;20182;-77
2023/05/04 16:20:42;;;;;;;2.30;2.10;;;;;;;24.12;29.31;100478.34;10146630;29;20058;-77
2023/05/04 16:25:45;;;;;;;3.53;2.05;;;;;;;23.57;28.96;100479.31;10134876;29;20052;-76
2023/05/04 16:30:48;;;;;;;5.25;2.08;;;;;;;23.46;29.91;100468.97;10130886;29;20184;-76
2023/05/04 16:35:53;;;;;;;5.30;2.20;;;;;;;23.66;30.17;100469.81;10132832;29;20055;-77
2023/05/04 16:40:56;;;;;;;6.53;2.72;;;;;;;23.91;29.95;100468.41;10142783;29;20052;-77
2023/05/04 16:45:58;;;;;;;2.50;2.28;;;;;;;23.81;30.12;100466.94;10148616;29;20158;-77
2023/05/04 16:51:04;;;;;;;4.22;2.40;;;;;;;23.80;29.98;100469.88;10147204;29;20054;-77
2023/05/04 16:56:07;;;;;;;6.93;2.85;;;;;;;23.88;29.99;100462.28;10148031;29;20142;-77
2023/05/04 17:01:10;;;;;;;3.95;2.88;;;;;;;23.41;30.82;100457.78;10156759;29;20583;-77
2023/05/04 17:06:14;;;;;;;6.50;2.58;;;;;;;23.77;30.87;100459.34;10141537;29;20044;-77
2023/05/04 17:11:19;;;;;;;5.28;2.70;;;;;;;24.16;30.25;100449.41;10149179;29;20500;-77
2023/05/04 17:16:22;;;;;;;6.32;2.53;;;;;;;23.74;31.00;100451.50;10140207;29;20588;-77
2023/05/04 17:21:26;;;;;;;6.45;2.50;;;;;;;24.15;30.68;100448.56;10153045;29;20048;-79
2023/05/04 17:26:30;;;;;;;4.53;2.40;;;;;;;23.39;31.68;100448.91;10145237;29;20677;-79
2023/05/04 17:31:33;;;;;;;5.95;2.63;;;;;;;22.21;33.55;100450.81;10150107;29;20044;-78
2023/05/04 17:36:37;;;;;;;4.25;2.75;;;;;;;21.32;34.44;100453.97;10140179;29;20448;-78
2023/05/04 17:41:40;;;;;;;3.45;2.70;;;;;;;20.64;35.67;100454.13;10147207;29;20187;-77
2023/05/04 17:46:43;;;;;;;4.68;2.13;;;;;;;20.31;36.00;100451.78;10153365;29;20181;-77
2023/05/04 17:51:48;;;;;;;3.20;2.53;;;;;;;20.02;36.84;100452.56;10141332;29;20040;-76
2023/05/04 17:56:51;;;;;;;5.63;2.40;;;;;;;19.83;37.12;100448.47;10148807;29;20051;-76
2023/05/04 18:01:54;;;;;;;3.17;2.30;;;;;;;19.66;37.65;100455.94;10137272;29;20414;-76
2023/05/04 18:06:58;;;;;;;4.32;3.17;;;;;;;19.35;38.20;100455.94;10149263;29;20055;-78
2023/05/04 18:12:02;;;;;;;4.00;2.90;;;;;;;19.21;38.66;100457.56;10139788;29;20794;-77
2023/05/04 18:17:05;;;;;;;5.68;2.10;;;;;;;18.94;38.97;100469.78;10157053;29;20585;-78
2023/05/04 18:22:09;;;;;;;3.40;2.22;;;;;;;18.73;38.98;100464.03;10144277;29;20145;-78
2023/05/04 18:27:12;;;;;;;4.35;2.30;;;;;;;18.49;39.24;100463.09;10163307;29;20051;-77
2023/05/04 18:32:14;;;;;;;5.78;2.58;;;;;;;18.41;39.69;100462.28;10145436;29;20095;-77
2023/05/04 18:37:19;;;;;;;2.70;2.50;;;;;;;18.26;39.95;100473.84;10158725;29;20050;-77
2023/05/04 18:42:21;;;;;;;4.82;2.67;;;;;;;;;;10161067;29;20056;-79
2023/05/04 18:47:24;;;;;;;3.88;2.42;;;;;;;17.96;40.58;100471.81;10145057;29;20047;-77
2023/05/04 18:52:28;;;;;;;6.90;3.00;;;;;;;17.79;41.07;100476.41;10156279;29;20059;-79
2023/05/04 18:57:31;;;;;;;5.15;2.63;;;;;;;17.64;41.45;100477.09;10164674;29;20067;-77
2023/05/04 19:02:34;;;;;;;7.97;3.13;;;;;;;17.54;41.25;100484.53;10168399;29;20055;-79
2023/05/04 19:07:38;;;;;;;7.82;2.95;;;;;;;17.40;41.48;100498.78;10151370;29;20050;-78
2023/05/04 19:12:41;;;;;;;6.38;2.78;;;;;;;17.27;41.80;100487.53;10152558;29;20131;-76
2023/05/04 19:17:44;;;;;;;6.05;3.00;;;;;;;17.10;42.24;100483.88;10158988;29;20131;-77
2023/05/04 19:22:48;;;;;;;7.63;3.17;;;;;;;16.88;42.83;100486.19;10152180;29;20048;-77
2023/05/04 19:27:51;;;;;;;5.75;3.05;;;;;;;16.84;43.32;100487.53;10167807;29;20051;-78
2023/05/04 19:32:54;;;;;;;7.28;3.67;;;;;;;16.76;43.90;100492.91;10159802;29;20058;-77
2023/05/04 19:38:00;;;;;;;6.85;3.17;;;;;;;16.56;44.67;100486.88;10147709;29;21308;-77
2023/05/04 19:43:03;;;;;;;5.22;3.78;;;;;;;16.40;45.28;100489.47;10161110;29;20056;-77
2023/05/04 19:48:06;;;;;;;8.05;3.78;;;;;;;16.27;45.79;100488.06;10145838;29;20057;-76
2023/05/04 19:53:10;;;;;;;15.40;4.55;;;;;;;16.14;46.35;100483.00;10143611;29;20048;-78
2023/05/04 19:58:13;;;;;;;9.00;4.60;;;;;;;15.97;46.67;100483.91;10147800;29;20531;-77
2023/05/04 20:03:17;;;;;;;10.02;4.28;;;;;;;15.93;47.28;100482.50;10146654;29;20514;-77
2023/05/04 20:08:21;;;;;;;6.32;4.20;;;;;;;15.85;47.72;100488.72;10152267;29;20051;-78
2023/05/04 20:13:25;;;;;;;12.43;5.35;;;;;;;15.65;48.14;100479.91;10152875;29;20167;-77
2023/05/04 20:18:28;;;;;;;8.27;4.88;;;;;;;15.57;48.27;100479.81;10143403;29;20527;-77
2023/05/04 20:23:32;;;;;;;7.72;4.15;;;;;;;15.50;48.37;100483.31;10150269;29;20503;-76
2023/05/04 20:28:35;;;;;;;9.07;5.10;;;;;;;15.61;48.47;100480.38;10143695;29;20059;-77
2023/05/04 20:33:37;;;;;;;8.13;4.70;;;;;;;15.53;48.64;100475.72;10147296;29;20110;-78
2023/05/04 20:38:41;;;;;;;12.70;4.70;;;;;;;15.48;48.75;100478.03;10158819;29;20063;-77
2023/05/04 20:43:44;;;;;;;9.70;4.80;;;;;;;15.40;49.21;100473.41;10152987;29;20439;-77
2023/05/04 20:48:47;;;;;;;6.90;4.40;;;;;;;15.41;49.25;100463.41;10149676;29;20059;-76
2023/05/04 20:53:51;;;;;;;11.68;4.93;;;;;;;15.40;49.28;100465.28;10148647;29;20056;-77
2023/05/04 20:58:54;;;;;;;9.90;5.63;;;;;;;15.39;49.15;100460.03;10188060;23;20043;-80
2023/05/04 21:03:57;;;;;;;9.40;4.88;;;;;;;15.39;48.93;100457.31;10210443;29;20470;-80
2023/05/04 21:09:01;;;;;;;10.30;5.47;;;;;;;15.26;49.45;100449.53;10217667;29;20873;-80
2023/05/04 21:14:04;;;;;;;10.85;5.90;;;;;;;15.30;49.13;100452.78;10204572;29;20058;-80
2023/05/04 21:19:07;;;;;;;16.52;5.70;;;;;;;15.24;49.67;100452.38;10212592;29;20074;-80
2023/05/04 21:24:12;;;;;;;5.70;5.07;;;;;;;15.08;50.09;100444.09;10185733;29;20090;-80
2023/05/04 21:29:15;;;;;;;11.70;5.32;;;;;;;15.12;50.01;100431.97;10203921;29;20051;-80
2023/05/04 21:34:18;;;;;;;12.30;5.40;;;;;;;15.06;49.87;100438.00;10213289;29;20051;-80
2023/05/04 21:39:22;;;;;;;9.50;5.00;;;;;;;14.94;50.42;100425.69;10199255;29;20044;-80
2023/05/04 21:44:25;;;;;;;11.38;4.95;;;;;;;14.83;50.63;100435.69;10198300;29;20058;-80
2023/05/04 21:49:28;;;;;;;8.60;4.95;;;;;;;14.74;50.38;100431.19;10209701;29;20411;-80
2023/05/04 21:54:32;;;;;;;7.40;4.85;;;;;;;14.69;50.33;100428.09;10198610;29;20514;-82
2023/05/04 21:59:34;;;;;;;7.45;5.10;;;;;;;14.59;50.36;100419.22;10204501;29;20139;-82
2023/05/04 22:04:42;;;;;;;9.35;4.63;;;;;;;14.48;50.65;100406.75;10210548;29;20538;-82
2023/05/04 22:09:46;;;;;;;7.88;4.72;;;;;;;14.41;50.61;100420.97;10219282;29;20055;-82
2023/05/04 22:14:49;;;;;;;10.77;4.93;;;;;;;14.50;50.46;100422.78;10219808;29;20636;-80
2023/05/04 22:19:52;;;;;;;6.35;5.00;;;;;;;14.44;50.43;100424.22;10209373;29;20107;-80
2023/05/04 22:24:56;;;;;;;9.18;5.03;;;;;;;14.40;50.28;100419.25;10204623;29;20076;-81
2023/05/04 22:29:59;;;;;;;6.63;5.15;;;;;;;14.35;50.50;100419.69;10190665;29;20044;-81
2023/05/04 22:35:02;;;;;;;6.45;4.50;;;;;;;14.36;50.21;100421.38;10192883;29;20055;-81
2023/05/04 22:40:07;;;;;;;6.68;4.45;;;;;;;14.24;50.47;100414.47;10211501;29;20055;-82
2023/05/04 22:45:12;;;;;;;8.98;4.53;;;;;;;14.32;50.21;100426.25;10199110;29;20059;-82
2023/05/04 22:50:16;;;;;;;4.90;3.95;;;;;;;14.30;50.03;100417.44;10183888;29;20083;-82
2023/05/04 22:55:20;;;;;;;7.82;4.35;;;;;;;14.23;50.28;100427.09;10213944;29;20050;-82
2023/05/04 23:00:24;;;;;;;7.75;4.50;;;;;;;14.22;50.23;100414.63;10213358;29;20040;-82
2023/05/04 23:05:26;;;;;;;8.55;4.50;;;;;;;14.15;50.38;100425.16;10202105;29;20047;-82
2023/05/04 23:10:31;;;;;;;9.90;4.75;;;;;;;14.12;50.10;100430.00;10213523;29;20036;-82
2023/05/04 23:15:33;;;;;;;7.97;4.43;;;;;;;14.03;50.40;100420.91;10204398;29;20107;-80